DLH401 EDDF-KJFK
Flight info
| Callsign | DLH401 |
|---|---|
| Flight time | 4h 56m |
| Altitude | 36000 |
| Route | OBOKA3D/07C OBOKA Z29 TORNU DCT GALSO Q63 ERING L179 UGBET Q60 OKSAW DCT TEWXI DCT VATRY DCT TORLU DCT VENER/M082F370 DCT 5430N02000W 5330N03000W 5130N04000W 4930N05000W DCT IBERG/N0476F380 N364A TUSKY DCT PLYMM PARCH4 |
| Aircraft | A346/H-SDE2E3FGHIJ3J4J5M1RWXY/LB1D1 |
Departure
| Time | 2026-05-08 21:25 |
|---|---|
| Airport | Frankfurt Main Airport (EDDF) |
Arrival
| Time | 2026-05-09 02:21 |
|---|---|
| Airport | John F. Kennedy International Airport (KJFK) |
| Time | Latitude | Longitude | Altitude | Speed | Heading |
|---|---|---|---|---|---|
| 2026-05-08 20:23 | 50.04600 | 8.56798 | 369 ft | 0 kts | 294° |
| 2026-05-08 21:11 | 50.04600 | 8.56797 | 372 ft | 4 kts | 300° |
| 2026-05-08 21:11 | 50.04593 | 8.56806 | 368 ft | 4 kts | 313° |
| 2026-05-08 21:11 | 50.04588 | 8.56819 | 373 ft | 4 kts | 265° |
| 2026-05-08 21:11 | 50.04595 | 8.56855 | 374 ft | 4 kts | 250° |
| 2026-05-08 21:12 | 50.04603 | 8.56886 | 375 ft | 4 kts | 237° |
| 2026-05-08 21:12 | 50.04619 | 8.56911 | 372 ft | 4 kts | 210° |
| 2026-05-08 21:12 | 50.04639 | 8.56923 | 372 ft | 1 kts | 193° |
| 2026-05-08 21:17 | 50.04637 | 8.56923 | 373 ft | 1 kts | 193° |
| 2026-05-08 21:17 | 50.04613 | 8.56914 | 376 ft | 6 kts | 193° |
| 2026-05-08 21:17 | 50.04610 | 8.56913 | 375 ft | 0 kts | 193° |
| 2026-05-08 21:17 | 50.04590 | 8.56906 | 371 ft | 8 kts | 193° |
| 2026-05-08 21:18 | 50.04522 | 8.56882 | 368 ft | 10 kts | 193° |
| 2026-05-08 21:18 | 50.04458 | 8.56818 | 373 ft | 12 kts | 233° |
| 2026-05-08 21:18 | 50.04421 | 8.56697 | 369 ft | 13 kts | 248° |
| 2026-05-08 21:18 | 50.04385 | 8.56556 | 372 ft | 15 kts | 249° |
| 2026-05-08 21:19 | 50.04344 | 8.56390 | 370 ft | 17 kts | 249° |
| 2026-05-08 21:19 | 50.04302 | 8.56203 | 366 ft | 20 kts | 250° |
| 2026-05-08 21:19 | 50.04250 | 8.55978 | 368 ft | 22 kts | 250° |
| 2026-05-08 21:19 | 50.04196 | 8.55744 | 368 ft | 24 kts | 249° |
| 2026-05-08 21:20 | 50.04136 | 8.55507 | 365 ft | 24 kts | 249° |
| 2026-05-08 21:20 | 50.04077 | 8.55259 | 368 ft | 25 kts | 249° |
| 2026-05-08 21:20 | 50.04011 | 8.54984 | 366 ft | 27 kts | 250° |
| 2026-05-08 21:20 | 50.03955 | 8.54752 | 361 ft | 24 kts | 249° |
| 2026-05-08 21:21 | 50.03894 | 8.54499 | 359 ft | 25 kts | 250° |
| 2026-05-08 21:21 | 50.03813 | 8.54249 | 363 ft | 26 kts | 243° |
| 2026-05-08 21:21 | 50.03744 | 8.53984 | 357 ft | 27 kts | 249° |
| 2026-05-08 21:21 | 50.03675 | 8.53701 | 351 ft | 29 kts | 249° |
| 2026-05-08 21:22 | 50.03602 | 8.53407 | 354 ft | 23 kts | 249° |
| 2026-05-08 21:22 | 50.03552 | 8.53209 | 350 ft | 20 kts | 239° |
| 2026-05-08 21:22 | 50.03475 | 8.53114 | 353 ft | 8 kts | 186° |
| 2026-05-08 21:22 | 50.03433 | 8.53174 | 356 ft | 12 kts | 128° |
| 2026-05-08 21:23 | 50.03377 | 8.53299 | 353 ft | 15 kts | 127° |
| 2026-05-08 21:23 | 50.03333 | 8.53389 | 353 ft | 9 kts | 126° |
| 2026-05-08 21:23 | 50.03294 | 8.53474 | 356 ft | 10 kts | 126° |
| 2026-05-08 21:23 | 50.03291 | 8.53585 | 356 ft | 12 kts | 69° |
| 2026-05-08 21:24 | 50.03298 | 8.53615 | 354 ft | 1 kts | 69° |
| 2026-05-08 21:24 | 50.03305 | 8.53642 | 357 ft | 4 kts | 69° |
| 2026-05-08 21:24 | 50.03367 | 8.53903 | 355 ft | 60 kts | 69° |
| 2026-05-08 21:24 | 50.03617 | 8.54941 | 362 ft | 133 kts | 69° |
| 2026-05-08 21:25 | 50.04027 | 8.56622 | 383 ft | 189 kts | 67° |
| 2026-05-08 21:25 | 50.04540 | 8.58793 | 1105 ft | 197 kts | 69° |
| 2026-05-08 21:25 | 50.04996 | 8.60809 | 2150 ft | 193 kts | 72° |
| 2026-05-08 21:25 | 50.05449 | 8.62824 | 2838 ft | 199 kts | 72° |
| 2026-05-08 21:26 | 50.05938 | 8.64970 | 3342 ft | 223 kts | 71° |
| 2026-05-08 21:26 | 50.06469 | 8.67367 | 4009 ft | 242 kts | 72° |
| 2026-05-08 21:26 | 50.07196 | 8.70252 | 4708 ft | 252 kts | 56° |
| 2026-05-08 21:26 | 50.08518 | 8.72141 | 5012 ft | 256 kts | 26° |
| 2026-05-08 21:27 | 50.10181 | 8.73275 | 5019 ft | 257 kts | 21° |
| 2026-05-08 21:27 | 50.11884 | 8.74323 | 5033 ft | 261 kts | 21° |
| 2026-05-08 21:27 | 50.13624 | 8.75422 | 5577 ft | 265 kts | 22° |
| 2026-05-08 21:27 | 50.15354 | 8.76555 | 6466 ft | 262 kts | 22° |
| 2026-05-08 21:28 | 50.17125 | 8.77734 | 7185 ft | 265 kts | 22° |
| 2026-05-08 21:28 | 50.18854 | 8.78896 | 7831 ft | 269 kts | 22° |
| 2026-05-08 21:28 | 50.20672 | 8.80125 | 8420 ft | 278 kts | 22° |
| 2026-05-08 21:28 | 50.22529 | 8.81382 | 8951 ft | 288 kts | 22° |
| 2026-05-08 21:29 | 50.24466 | 8.82393 | 9633 ft | 290 kts | 4° |
| 2026-05-08 21:29 | 50.26473 | 8.82096 | 10309 ft | 288 kts | 338° |
| 2026-05-08 21:29 | 50.28207 | 8.80477 | 10795 ft | 295 kts | 313° |
| 2026-05-08 21:29 | 50.29365 | 8.77737 | 11082 ft | 307 kts | 289° |
| 2026-05-08 21:30 | 50.30066 | 8.74382 | 11435 ft | 323 kts | 286° |
| 2026-05-08 21:30 | 50.30770 | 8.70820 | 11749 ft | 340 kts | 286° |
| 2026-05-08 21:30 | 50.31531 | 8.67123 | 12067 ft | 356 kts | 287° |
| 2026-05-08 21:30 | 50.32351 | 8.63284 | 12366 ft | 372 kts | 288° |
| 2026-05-08 21:31 | 50.33218 | 8.59292 | 12849 ft | 381 kts | 288° |
| 2026-05-08 21:31 | 50.34089 | 8.55298 | 13599 ft | 383 kts | 288° |
| 2026-05-08 21:31 | 50.34931 | 8.51431 | 14255 ft | 387 kts | 288° |
| 2026-05-08 21:31 | 50.35827 | 8.47301 | 14871 ft | 391 kts | 288° |
| 2026-05-08 21:32 | 50.36718 | 8.43181 | 15490 ft | 394 kts | 288° |
| 2026-05-08 21:32 | 50.37450 | 8.38991 | 16093 ft | 397 kts | 278° |
| 2026-05-08 21:32 | 50.37551 | 8.34613 | 16711 ft | 399 kts | 264° |
| 2026-05-08 21:32 | 50.37002 | 8.30316 | 17327 ft | 402 kts | 253° |
| 2026-05-08 21:33 | 50.36158 | 8.26111 | 17941 ft | 405 kts | 251° |
| 2026-05-08 21:33 | 50.35261 | 8.21836 | 18518 ft | 409 kts | 251° |
| 2026-05-08 21:33 | 50.34382 | 8.17610 | 19022 ft | 412 kts | 252° |
| 2026-05-08 21:33 | 50.33494 | 8.13274 | 19568 ft | 415 kts | 252° |
| 2026-05-08 21:34 | 50.32614 | 8.08929 | 20104 ft | 417 kts | 252° |
| 2026-05-08 21:34 | 50.31728 | 8.04541 | 20634 ft | 420 kts | 252° |
| 2026-05-08 21:34 | 50.30841 | 8.00147 | 21153 ft | 423 kts | 252° |
| 2026-05-08 21:34 | 50.30003 | 7.95657 | 21649 ft | 426 kts | 258° |
| 2026-05-08 21:35 | 50.29789 | 7.90926 | 22135 ft | 430 kts | 273° |
| 2026-05-08 21:35 | 50.30372 | 7.86230 | 22666 ft | 433 kts | 288° |
| 2026-05-08 21:35 | 50.31569 | 7.81813 | 23213 ft | 435 kts | 294° |
| 2026-05-08 21:35 | 50.32879 | 7.77508 | 23682 ft | 439 kts | 295° |
| 2026-05-08 21:36 | 50.34200 | 7.73155 | 24053 ft | 441 kts | 295° |
| 2026-05-08 21:36 | 50.35813 | 7.69027 | 24400 ft | 447 kts | 308° |
| 2026-05-08 21:36 | 50.37924 | 7.65735 | 24801 ft | 449 kts | 321° |
| 2026-05-08 21:36 | 50.39857 | 7.63770 | 25103 ft | 452 kts | 332° |
| 2026-05-08 21:37 | 50.42720 | 7.61718 | 25561 ft | 453 kts | 336° |
| 2026-05-08 21:37 | 50.46656 | 7.59152 | 26072 ft | 456 kts | 337° |
| 2026-05-08 21:37 | 50.49597 | 7.57202 | 26457 ft | 459 kts | 336° |
| 2026-05-08 21:37 | 50.52533 | 7.55184 | 26869 ft | 461 kts | 335° |
| 2026-05-08 21:38 | 50.54495 | 7.53690 | 27123 ft | 462 kts | 333° |
| 2026-05-08 21:38 | 50.57397 | 7.51211 | 27535 ft | 464 kts | 329° |
| 2026-05-08 21:38 | 50.60276 | 7.48426 | 27938 ft | 466 kts | 327° |
| 2026-05-08 21:38 | 50.62982 | 7.45658 | 28488 ft | 464 kts | 327° |
| 2026-05-08 21:39 | 50.65693 | 7.42850 | 29106 ft | 461 kts | 327° |
| 2026-05-08 21:39 | 50.68397 | 7.40031 | 29712 ft | 459 kts | 325° |
| 2026-05-08 21:39 | 50.70927 | 7.36947 | 30264 ft | 458 kts | 320° |
| 2026-05-08 21:39 | 50.73295 | 7.33385 | 30751 ft | 456 kts | 314° |
| 2026-05-08 21:40 | 50.75382 | 7.29509 | 31196 ft | 455 kts | 308° |
| 2026-05-08 21:40 | 50.77235 | 7.25219 | 31667 ft | 454 kts | 302° |
| 2026-05-08 21:40 | 50.78771 | 7.20827 | 32127 ft | 452 kts | 298° |
| 2026-05-08 21:41 | 50.81690 | 7.11723 | 33056 ft | 449 kts | 298° |
| 2026-05-08 21:41 | 50.83142 | 7.07187 | 33509 ft | 447 kts | 298° |
| 2026-05-08 21:41 | 50.84608 | 7.02631 | 33975 ft | 445 kts | 298° |
| 2026-05-08 21:41 | 50.86028 | 6.98237 | 34369 ft | 443 kts | 298° |
| 2026-05-08 21:42 | 50.87504 | 6.93669 | 34673 ft | 443 kts | 298° |
| 2026-05-08 21:42 | 50.88917 | 6.89283 | 34884 ft | 445 kts | 298° |
| 2026-05-08 21:42 | 50.90385 | 6.84713 | 35083 ft | 447 kts | 298° |
| 2026-05-08 21:42 | 50.91800 | 6.80299 | 35294 ft | 448 kts | 298° |
| 2026-05-08 21:43 | 50.93252 | 6.75765 | 35517 ft | 449 kts | 298° |
| 2026-05-08 21:43 | 50.94666 | 6.71338 | 35726 ft | 450 kts | 298° |
| 2026-05-08 21:43 | 50.96071 | 6.66935 | 35913 ft | 452 kts | 298° |
| 2026-05-08 21:43 | 50.97509 | 6.62419 | 36104 ft | 453 kts | 298° |
| 2026-05-08 21:44 | 51.00353 | 6.53459 | 36136 ft | 455 kts | 298° |
| 2026-05-08 21:44 | 51.03261 | 6.44264 | 36140 ft | 454 kts | 298° |
| 2026-05-08 21:45 | 51.06168 | 6.35042 | 36140 ft | 454 kts | 298° |
| 2026-05-08 21:45 | 51.09037 | 6.25907 | 36136 ft | 453 kts | 298° |
| 2026-05-08 21:46 | 51.11829 | 6.16924 | 36138 ft | 453 kts | 297° |
| 2026-05-08 21:46 | 51.14253 | 6.07383 | 36131 ft | 454 kts | 291° |
| 2026-05-08 21:47 | 51.15995 | 5.97801 | 36146 ft | 455 kts | 287° |
| 2026-05-08 21:47 | 51.17611 | 5.87775 | 36132 ft | 454 kts | 287° |
| 2026-05-08 21:48 | 51.19488 | 5.77952 | 36136 ft | 451 kts | 291° |
| 2026-05-08 21:48 | 51.21590 | 5.68360 | 36136 ft | 451 kts | 291° |
| 2026-05-08 21:49 | 51.23698 | 5.58745 | 36135 ft | 450 kts | 291° |
| 2026-05-08 21:49 | 51.25764 | 5.49256 | 36138 ft | 450 kts | 291° |
| 2026-05-08 21:50 | 51.27851 | 5.39611 | 36136 ft | 449 kts | 291° |
| 2026-05-08 21:50 | 51.29912 | 5.30036 | 36138 ft | 449 kts | 291° |
| 2026-05-08 21:51 | 51.31945 | 5.20551 | 36138 ft | 448 kts | 291° |
| 2026-05-08 21:51 | 51.33970 | 5.11052 | 36138 ft | 448 kts | 291° |
| 2026-05-08 21:52 | 51.35991 | 5.01533 | 36140 ft | 447 kts | 291° |
| 2026-05-08 21:52 | 51.38011 | 4.91971 | 36135 ft | 447 kts | 291° |
| 2026-05-08 21:53 | 51.40000 | 4.82509 | 36137 ft | 446 kts | 291° |
| 2026-05-08 21:53 | 51.41973 | 4.73084 | 36138 ft | 446 kts | 291° |
| 2026-05-08 21:54 | 51.43951 | 4.63590 | 36142 ft | 446 kts | 291° |
| 2026-05-08 21:54 | 51.45928 | 4.54053 | 36138 ft | 445 kts | 290° |
| 2026-05-08 21:55 | 51.47887 | 4.44558 | 36137 ft | 445 kts | 290° |
| 2026-05-08 21:56 | 51.50823 | 4.30243 | 36138 ft | 445 kts | 290° |
| 2026-05-08 21:56 | 51.52774 | 4.20672 | 36140 ft | 445 kts | 290° |
| 2026-05-08 21:57 | 51.54711 | 4.11128 | 36136 ft | 445 kts | 290° |
| 2026-05-08 21:57 | 51.56664 | 4.01455 | 36139 ft | 445 kts | 290° |
| 2026-05-08 21:58 | 51.58597 | 3.91833 | 36142 ft | 445 kts | 289° |
| 2026-05-08 21:58 | 51.60514 | 3.82245 | 36143 ft | 444 kts | 289° |
| 2026-05-08 21:59 | 51.62403 | 3.72747 | 36146 ft | 444 kts | 289° |
| 2026-05-08 21:59 | 51.64306 | 3.63133 | 36150 ft | 444 kts | 289° |
| 2026-05-08 22:00 | 51.66189 | 3.53578 | 36152 ft | 444 kts | 289° |
| 2026-05-08 22:00 | 51.68070 | 3.43983 | 36151 ft | 444 kts | 289° |
| 2026-05-08 22:01 | 51.69940 | 3.34386 | 36150 ft | 444 kts | 289° |
| 2026-05-08 22:01 | 51.71473 | 3.24677 | 36153 ft | 445 kts | 282° |
| 2026-05-08 22:02 | 51.72204 | 3.14603 | 36155 ft | 447 kts | 274° |
| 2026-05-08 22:02 | 51.72099 | 3.04457 | 36147 ft | 450 kts | 267° |
| 2026-05-08 22:03 | 51.71300 | 2.94285 | 36154 ft | 451 kts | 264° |
| 2026-05-08 22:03 | 51.70407 | 2.84124 | 36152 ft | 451 kts | 264° |
| 2026-05-08 22:04 | 51.69518 | 2.74023 | 36152 ft | 451 kts | 264° |
| 2026-05-08 22:04 | 51.68637 | 2.64040 | 36131 ft | 450 kts | 264° |
| 2026-05-08 22:05 | 51.67740 | 2.53980 | 36149 ft | 450 kts | 264° |
| 2026-05-08 22:05 | 51.66825 | 2.43803 | 36154 ft | 450 kts | 263° |
| 2026-05-08 22:06 | 51.65906 | 2.33678 | 36149 ft | 450 kts | 263° |
| 2026-05-08 22:06 | 51.64987 | 2.23652 | 36155 ft | 450 kts | 263° |
| 2026-05-08 22:07 | 51.64057 | 2.13600 | 36148 ft | 450 kts | 263° |
| 2026-05-08 22:07 | 51.63114 | 2.03505 | 36152 ft | 449 kts | 263° |
| 2026-05-08 22:08 | 51.62164 | 1.93425 | 36150 ft | 449 kts | 263° |
| 2026-05-08 22:08 | 51.61217 | 1.83460 | 36154 ft | 449 kts | 263° |
| 2026-05-08 22:09 | 51.60243 | 1.73343 | 36155 ft | 448 kts | 262° |
| 2026-05-08 22:09 | 51.59511 | 1.63374 | 36154 ft | 447 kts | 267° |
| 2026-05-08 22:10 | 51.59408 | 1.53213 | 36152 ft | 446 kts | 273° |
| 2026-05-08 22:10 | 51.59813 | 1.43180 | 36156 ft | 446 kts | 275° |
| 2026-05-08 22:11 | 51.60256 | 1.33271 | 36154 ft | 446 kts | 274° |
| 2026-05-08 22:11 | 51.60687 | 1.23056 | 36158 ft | 446 kts | 274° |
| 2026-05-08 22:12 | 51.61091 | 1.13062 | 36151 ft | 446 kts | 274° |
| 2026-05-08 22:12 | 51.61489 | 1.03001 | 36151 ft | 446 kts | 274° |
| 2026-05-08 22:13 | 51.61881 | 0.92842 | 36144 ft | 446 kts | 274° |
| 2026-05-08 22:13 | 51.62268 | 0.82640 | 36144 ft | 447 kts | 274° |
| 2026-05-08 22:14 | 51.62642 | 0.72512 | 36139 ft | 447 kts | 273° |
| 2026-05-08 22:14 | 51.63008 | 0.62388 | 36144 ft | 447 kts | 273° |
| 2026-05-08 22:15 | 51.63368 | 0.52157 | 36135 ft | 447 kts | 273° |
| 2026-05-08 22:15 | 51.63722 | 0.41909 | 36148 ft | 447 kts | 273° |
| 2026-05-08 22:16 | 51.64057 | 0.31883 | 36146 ft | 447 kts | 272° |
| 2026-05-08 22:16 | 51.64333 | 0.21792 | 36143 ft | 448 kts | 270° |
| 2026-05-08 22:17 | 51.64271 | 0.11064 | 36124 ft | 448 kts | 276° |
| 2026-05-08 22:17 | 51.65779 | 0.01088 | 36145 ft | 450 kts | 286° |
| 2026-05-08 22:18 | 51.67701 | -0.08673 | 36163 ft | 450 kts | 286° |
| 2026-05-08 22:18 | 51.69594 | -0.18511 | 36172 ft | 450 kts | 286° |
| 2026-05-08 22:19 | 51.71431 | -0.28250 | 36169 ft | 450 kts | 285° |
| 2026-05-08 22:19 | 51.73260 | -0.38059 | 36172 ft | 450 kts | 285° |
| 2026-05-08 22:20 | 51.75079 | -0.47886 | 36165 ft | 450 kts | 285° |
| 2026-05-08 22:20 | 51.76925 | -0.57919 | 36146 ft | 450 kts | 285° |
| 2026-05-08 22:21 | 51.78724 | -0.67754 | 36141 ft | 450 kts | 285° |
| 2026-05-08 22:21 | 51.80525 | -0.77657 | 36144 ft | 451 kts | 285° |
| 2026-05-08 22:22 | 51.82294 | -0.87437 | 36136 ft | 451 kts | 284° |
| 2026-05-08 22:22 | 51.84073 | -0.97324 | 36123 ft | 451 kts | 284° |
| 2026-05-08 22:23 | 51.85856 | -1.07279 | 36123 ft | 452 kts | 284° |
| 2026-05-08 22:23 | 51.87621 | -1.17195 | 36123 ft | 452 kts | 284° |
| 2026-05-08 22:24 | 51.89104 | -1.25572 | 36117 ft | 452 kts | 284° |
| 2026-05-08 22:24 | 51.90850 | -1.35480 | 36123 ft | 452 kts | 284° |
| 2026-05-08 22:25 | 51.92584 | -1.45371 | 36104 ft | 452 kts | 284° |
| 2026-05-08 22:25 | 51.94325 | -1.55365 | 36119 ft | 452 kts | 284° |
| 2026-05-08 22:26 | 51.96059 | -1.65367 | 36130 ft | 452 kts | 283° |
| 2026-05-08 22:26 | 51.97773 | -1.75316 | 36137 ft | 452 kts | 283° |
| 2026-05-08 22:27 | 51.99461 | -1.85168 | 36133 ft | 452 kts | 283° |
| 2026-05-08 22:27 | 52.01161 | -1.95148 | 36136 ft | 452 kts | 283° |
| 2026-05-08 22:28 | 52.02870 | -2.05238 | 36134 ft | 452 kts | 283° |
| 2026-05-08 22:28 | 52.04536 | -2.15126 | 36136 ft | 453 kts | 283° |
| 2026-05-08 22:29 | 52.06213 | -2.25140 | 36132 ft | 453 kts | 283° |
| 2026-05-08 22:29 | 52.07865 | -2.35065 | 36139 ft | 453 kts | 283° |
| 2026-05-08 22:30 | 52.09521 | -2.45070 | 36133 ft | 453 kts | 282° |
| 2026-05-08 22:30 | 52.11155 | -2.55004 | 36139 ft | 453 kts | 282° |
| 2026-05-08 22:31 | 52.12799 | -2.65050 | 36135 ft | 454 kts | 282° |
| 2026-05-08 22:31 | 52.14433 | -2.75096 | 36143 ft | 454 kts | 282° |
| 2026-05-08 22:32 | 52.16058 | -2.85151 | 36139 ft | 454 kts | 282° |
| 2026-05-08 22:32 | 52.17663 | -2.95138 | 36144 ft | 454 kts | 282° |
| 2026-05-08 22:33 | 52.19267 | -3.05183 | 36139 ft | 455 kts | 282° |
| 2026-05-08 22:33 | 52.20868 | -3.15265 | 36142 ft | 455 kts | 282° |
| 2026-05-08 22:34 | 52.22471 | -3.25428 | 36139 ft | 455 kts | 282° |
| 2026-05-08 22:34 | 52.24055 | -3.35525 | 36144 ft | 455 kts | 282° |
| 2026-05-08 22:35 | 52.25635 | -3.45663 | 36137 ft | 455 kts | 281° |
| 2026-05-08 22:35 | 52.27204 | -3.55798 | 36144 ft | 455 kts | 281° |
| 2026-05-08 22:36 | 52.28752 | -3.65851 | 36135 ft | 455 kts | 281° |
| 2026-05-08 22:36 | 52.30294 | -3.75934 | 36139 ft | 455 kts | 281° |
| 2026-05-08 22:37 | 52.31828 | -3.86020 | 36133 ft | 455 kts | 281° |
| 2026-05-08 22:37 | 52.33363 | -3.96183 | 36132 ft | 455 kts | 281° |
| 2026-05-08 22:38 | 52.34891 | -4.06366 | 36124 ft | 455 kts | 281° |
| 2026-05-08 22:38 | 52.36407 | -4.16533 | 36125 ft | 455 kts | 281° |
| 2026-05-08 22:39 | 52.37912 | -4.26690 | 36106 ft | 455 kts | 281° |
| 2026-05-08 22:39 | 52.39396 | -4.36769 | 36120 ft | 454 kts | 281° |
| 2026-05-08 22:40 | 52.40889 | -4.46978 | 36123 ft | 454 kts | 281° |
| 2026-05-08 22:40 | 52.42358 | -4.57085 | 36119 ft | 454 kts | 281° |
| 2026-05-08 22:41 | 52.43830 | -4.67287 | 36115 ft | 454 kts | 281° |
| 2026-05-08 22:41 | 52.45288 | -4.77454 | 36124 ft | 454 kts | 280° |
| 2026-05-08 22:42 | 52.46745 | -4.87677 | 36126 ft | 454 kts | 280° |
| 2026-05-08 22:42 | 52.48183 | -4.97843 | 36130 ft | 454 kts | 280° |
| 2026-05-08 22:43 | 52.49626 | -5.08109 | 36128 ft | 454 kts | 280° |
| 2026-05-08 22:43 | 52.51050 | -5.18304 | 36133 ft | 453 kts | 280° |
| 2026-05-08 22:44 | 52.52460 | -5.28471 | 36132 ft | 453 kts | 280° |
| 2026-05-08 22:44 | 52.53871 | -5.38717 | 36138 ft | 453 kts | 280° |
| 2026-05-08 22:45 | 52.55334 | -5.48869 | 36139 ft | 454 kts | 283° |
| 2026-05-08 22:45 | 52.57322 | -5.58806 | 36142 ft | 455 kts | 287° |
| 2026-05-08 22:46 | 52.59494 | -5.68734 | 36146 ft | 455 kts | 287° |
| 2026-05-08 22:46 | 52.61626 | -5.78532 | 36153 ft | 454 kts | 287° |
| 2026-05-08 22:47 | 52.63753 | -5.88385 | 36154 ft | 454 kts | 287° |
| 2026-05-08 22:47 | 52.65890 | -5.98346 | 36158 ft | 454 kts | 287° |
| 2026-05-08 22:48 | 52.68017 | -6.08314 | 36150 ft | 453 kts | 287° |
| 2026-05-08 22:48 | 52.70130 | -6.18265 | 36163 ft | 453 kts | 287° |
| 2026-05-08 22:49 | 52.72195 | -6.28039 | 36162 ft | 453 kts | 286° |
| 2026-05-08 22:49 | 52.75312 | -6.42880 | 36167 ft | 453 kts | 286° |
| 2026-05-08 22:50 | 52.77368 | -6.52735 | 36167 ft | 452 kts | 286° |
| 2026-05-08 22:50 | 52.79407 | -6.62553 | 36176 ft | 452 kts | 286° |
| 2026-05-08 22:51 | 52.81461 | -6.72490 | 36172 ft | 452 kts | 286° |
| 2026-05-08 22:51 | 52.83473 | -6.82275 | 36176 ft | 452 kts | 286° |
| 2026-05-08 22:52 | 52.85532 | -6.92340 | 36170 ft | 452 kts | 285° |
| 2026-05-08 22:52 | 52.87552 | -7.02266 | 36178 ft | 452 kts | 285° |
| 2026-05-08 22:53 | 52.89541 | -7.12085 | 36177 ft | 451 kts | 285° |
| 2026-05-08 22:53 | 52.91560 | -7.22103 | 36181 ft | 451 kts | 285° |
| 2026-05-08 22:54 | 52.93546 | -7.32001 | 36180 ft | 451 kts | 285° |
| 2026-05-08 22:54 | 52.95519 | -7.41892 | 36183 ft | 450 kts | 285° |
| 2026-05-08 22:55 | 52.97474 | -7.51746 | 36182 ft | 450 kts | 285° |
| 2026-05-08 22:55 | 52.99593 | -7.61736 | 36183 ft | 451 kts | 288° |
| 2026-05-08 22:56 | 53.01935 | -7.71447 | 36188 ft | 451 kts | 289° |
| 2026-05-08 22:56 | 53.04283 | -7.81146 | 36193 ft | 450 kts | 288° |
| 2026-05-08 22:57 | 53.06595 | -7.90761 | 36192 ft | 450 kts | 288° |
| 2026-05-08 22:57 | 53.08932 | -8.00536 | 36192 ft | 450 kts | 288° |
| 2026-05-08 22:58 | 53.11255 | -8.10299 | 36191 ft | 449 kts | 288° |
| 2026-05-08 22:58 | 53.13558 | -8.20026 | 36192 ft | 449 kts | 288° |
| 2026-05-08 22:59 | 53.15861 | -8.29792 | 36195 ft | 448 kts | 288° |
| 2026-05-08 22:59 | 53.18136 | -8.39486 | 36195 ft | 448 kts | 288° |
| 2026-05-08 23:00 | 53.20407 | -8.49208 | 36196 ft | 448 kts | 288° |
| 2026-05-08 23:00 | 53.22657 | -8.58886 | 36190 ft | 447 kts | 288° |
| 2026-05-08 23:01 | 53.24914 | -8.68636 | 36193 ft | 447 kts | 288° |
| 2026-05-08 23:01 | 53.27159 | -8.78379 | 36201 ft | 447 kts | 288° |
| 2026-05-08 23:02 | 53.29393 | -8.88117 | 36210 ft | 447 kts | 287° |
| 2026-05-08 23:02 | 53.31622 | -8.97880 | 36212 ft | 447 kts | 287° |
| 2026-05-08 23:03 | 53.33836 | -9.07622 | 36215 ft | 447 kts | 287° |
| 2026-05-08 23:03 | 53.36034 | -9.17336 | 36220 ft | 446 kts | 287° |
| 2026-05-08 23:04 | 53.38254 | -9.27195 | 36223 ft | 446 kts | 287° |
| 2026-05-08 23:04 | 53.40443 | -9.36955 | 36231 ft | 446 kts | 287° |
| 2026-05-08 23:05 | 53.42608 | -9.46642 | 36230 ft | 446 kts | 287° |
| 2026-05-08 23:05 | 53.44832 | -9.56653 | 36234 ft | 447 kts | 287° |
| 2026-05-08 23:06 | 53.47007 | -9.66489 | 36233 ft | 447 kts | 287° |
| 2026-05-08 23:06 | 53.49188 | -9.76403 | 36236 ft | 447 kts | 287° |
| 2026-05-08 23:07 | 53.51356 | -9.86313 | 36243 ft | 447 kts | 287° |
| 2026-05-08 23:07 | 53.53505 | -9.96177 | 36243 ft | 447 kts | 287° |
| 2026-05-08 23:08 | 53.55647 | -10.06056 | 36244 ft | 447 kts | 286° |
| 2026-05-08 23:08 | 53.57770 | -10.15898 | 36246 ft | 447 kts | 286° |
| 2026-05-08 23:09 | 53.59892 | -10.25781 | 36250 ft | 447 kts | 286° |
| 2026-05-08 23:09 | 53.62007 | -10.35679 | 36252 ft | 448 kts | 286° |
| 2026-05-08 23:10 | 53.64113 | -10.45586 | 36254 ft | 448 kts | 286° |
| 2026-05-08 23:10 | 53.66214 | -10.55516 | 36260 ft | 448 kts | 286° |
| 2026-05-08 23:11 | 53.68317 | -10.65504 | 36265 ft | 448 kts | 286° |
| 2026-05-08 23:11 | 53.70062 | -10.73830 | 36269 ft | 449 kts | 286° |
| 2026-05-08 23:12 | 53.72153 | -10.83854 | 36275 ft | 449 kts | 285° |
| 2026-05-08 23:12 | 53.74239 | -10.93903 | 36272 ft | 449 kts | 285° |
| 2026-05-08 23:13 | 53.76305 | -11.03903 | 36275 ft | 449 kts | 285° |
| 2026-05-08 23:13 | 53.78363 | -11.13916 | 36275 ft | 449 kts | 285° |
| 2026-05-08 23:14 | 53.80420 | -11.23978 | 36288 ft | 450 kts | 285° |
| 2026-05-08 23:14 | 53.82446 | -11.33940 | 36285 ft | 450 kts | 285° |
| 2026-05-08 23:15 | 53.84480 | -11.43988 | 36290 ft | 450 kts | 285° |
| 2026-05-08 23:15 | 53.86512 | -11.54078 | 36294 ft | 450 kts | 285° |
| 2026-05-08 23:16 | 53.88558 | -11.64290 | 36286 ft | 450 kts | 285° |
| 2026-05-08 23:16 | 53.90585 | -11.74458 | 36293 ft | 450 kts | 285° |
| 2026-05-08 23:17 | 53.92605 | -11.84648 | 36311 ft | 450 kts | 285° |
| 2026-05-08 23:17 | 53.94614 | -11.94832 | 36297 ft | 450 kts | 285° |
| 2026-05-08 23:18 | 53.96619 | -12.05053 | 36300 ft | 450 kts | 285° |
| 2026-05-08 23:18 | 53.98583 | -12.15118 | 36302 ft | 450 kts | 285° |
| 2026-05-08 23:19 | 54.00582 | -12.25416 | 36309 ft | 450 kts | 284° |
| 2026-05-08 23:19 | 54.02541 | -12.35560 | 36312 ft | 450 kts | 284° |
| 2026-05-08 23:20 | 54.04514 | -12.45835 | 36319 ft | 450 kts | 284° |
| 2026-05-08 23:20 | 54.06468 | -12.56061 | 36320 ft | 450 kts | 284° |
| 2026-05-08 23:21 | 54.08415 | -12.66311 | 36327 ft | 450 kts | 284° |
| 2026-05-08 23:21 | 54.10356 | -12.76580 | 36329 ft | 450 kts | 284° |
| 2026-05-08 23:22 | 54.12271 | -12.86771 | 36339 ft | 450 kts | 284° |
| 2026-05-08 23:22 | 54.14200 | -12.97086 | 36333 ft | 450 kts | 284° |
| 2026-05-08 23:23 | 54.16114 | -13.07383 | 36339 ft | 450 kts | 284° |
| 2026-05-08 23:23 | 54.18009 | -13.17638 | 36341 ft | 450 kts | 284° |
| 2026-05-08 23:24 | 54.19898 | -13.27912 | 36344 ft | 450 kts | 284° |
| 2026-05-08 23:24 | 54.21776 | -13.38181 | 36342 ft | 451 kts | 284° |
| 2026-05-08 23:25 | 54.23648 | -13.48477 | 36350 ft | 451 kts | 284° |
| 2026-05-08 23:25 | 54.25517 | -13.58816 | 36347 ft | 451 kts | 284° |
| 2026-05-08 23:26 | 54.27373 | -13.69138 | 36353 ft | 452 kts | 284° |
| 2026-05-08 23:26 | 54.29215 | -13.79443 | 36356 ft | 452 kts | 284° |
| 2026-05-08 23:27 | 54.31049 | -13.89761 | 36365 ft | 452 kts | 284° |
| 2026-05-08 23:27 | 54.32883 | -14.00137 | 36360 ft | 453 kts | 284° |
| 2026-05-08 23:28 | 54.34693 | -14.10436 | 36364 ft | 453 kts | 284° |
| 2026-05-08 23:28 | 54.36521 | -14.20897 | 36363 ft | 453 kts | 284° |
| 2026-05-08 23:29 | 54.38337 | -14.31349 | 36374 ft | 454 kts | 284° |
| 2026-05-08 23:29 | 54.40124 | -14.41697 | 36371 ft | 454 kts | 284° |
| 2026-05-08 23:30 | 54.41931 | -14.52223 | 36386 ft | 454 kts | 284° |
| 2026-05-08 23:30 | 54.43718 | -14.62696 | 36379 ft | 454 kts | 284° |
| 2026-05-08 23:31 | 54.45513 | -14.73274 | 36384 ft | 455 kts | 284° |
| 2026-05-08 23:31 | 54.47287 | -14.83804 | 36385 ft | 455 kts | 284° |
| 2026-05-08 23:32 | 54.48927 | -14.94412 | 36389 ft | 455 kts | 281° |
| 2026-05-08 23:32 | 54.49943 | -15.05217 | 36392 ft | 454 kts | 275° |
| 2026-05-08 23:33 | 54.50319 | -15.16151 | 36398 ft | 454 kts | 271° |
| 2026-05-08 23:33 | 54.50516 | -15.27101 | 36397 ft | 454 kts | 271° |
| 2026-05-08 23:34 | 54.50707 | -15.38129 | 36398 ft | 455 kts | 271° |
| 2026-05-08 23:34 | 54.50800 | -15.43666 | 36513 ft | 459 kts | 271° |
| 2026-05-08 23:34 | 54.50892 | -15.49176 | 36848 ft | 457 kts | 271° |
| 2026-05-08 23:35 | 54.50981 | -15.54698 | 37209 ft | 455 kts | 271° |
| 2026-05-08 23:35 | 54.51068 | -15.60190 | 37405 ft | 456 kts | 271° |
| 2026-05-08 23:35 | 54.51237 | -15.71235 | 37401 ft | 457 kts | 271° |
| 2026-05-08 23:36 | 54.51395 | -15.82209 | 37410 ft | 457 kts | 271° |
| 2026-05-08 23:36 | 54.51543 | -15.93246 | 37407 ft | 457 kts | 271° |
| 2026-05-08 23:37 | 54.51681 | -16.04248 | 37415 ft | 457 kts | 271° |
| 2026-05-08 23:37 | 54.51808 | -16.15255 | 37414 ft | 457 kts | 271° |
| 2026-05-08 23:38 | 54.51926 | -16.26245 | 37413 ft | 458 kts | 271° |
| 2026-05-08 23:38 | 54.51977 | -16.31748 | 37229 ft | 459 kts | 273° |
| 2026-05-08 23:38 | 54.52022 | -16.37316 | 37357 ft | 462 kts | 273° |
| 2026-05-08 23:39 | 54.52124 | -16.48518 | 37410 ft | 465 kts | 273° |
| 2026-05-08 23:39 | 54.52215 | -16.59660 | 37421 ft | 466 kts | 273° |
| 2026-05-08 23:40 | 54.52297 | -16.70923 | 37423 ft | 467 kts | 273° |
| 2026-05-08 23:40 | 54.52368 | -16.82295 | 37428 ft | 468 kts | 273° |
| 2026-05-08 23:41 | 54.52426 | -16.93577 | 37433 ft | 468 kts | 273° |
| 2026-05-08 23:41 | 54.52474 | -17.04944 | 37437 ft | 469 kts | 273° |
| 2026-05-08 23:42 | 54.52511 | -17.16196 | 37434 ft | 470 kts | 273° |
| 2026-05-08 23:42 | 54.52538 | -17.27530 | 37431 ft | 470 kts | 272° |
| 2026-05-08 23:43 | 54.52554 | -17.38840 | 37439 ft | 471 kts | 272° |
| 2026-05-08 23:43 | 54.52561 | -17.50340 | 37441 ft | 471 kts | 272° |
| 2026-05-08 23:44 | 54.52555 | -17.61736 | 37442 ft | 471 kts | 272° |
| 2026-05-08 23:44 | 54.52540 | -17.73068 | 37445 ft | 472 kts | 272° |
| 2026-05-08 23:45 | 54.52512 | -17.84645 | 37447 ft | 472 kts | 272° |
| 2026-05-08 23:45 | 54.52474 | -17.96106 | 37447 ft | 473 kts | 272° |
| 2026-05-08 23:46 | 54.52426 | -18.07506 | 37448 ft | 473 kts | 272° |
| 2026-05-08 23:46 | 54.52366 | -18.19011 | 37453 ft | 474 kts | 272° |
| 2026-05-08 23:47 | 54.52297 | -18.30476 | 37453 ft | 474 kts | 272° |
| 2026-05-08 23:47 | 54.52215 | -18.42028 | 37468 ft | 474 kts | 272° |
| 2026-05-08 23:48 | 54.52124 | -18.53427 | 37454 ft | 475 kts | 272° |
| 2026-05-08 23:48 | 54.52020 | -18.65014 | 37463 ft | 475 kts | 272° |
| 2026-05-08 23:49 | 54.51907 | -18.76433 | 37451 ft | 475 kts | 272° |
| 2026-05-08 23:49 | 54.51783 | -18.87936 | 37465 ft | 476 kts | 272° |
| 2026-05-08 23:50 | 54.51647 | -18.99450 | 37471 ft | 476 kts | 272° |
| 2026-05-08 23:50 | 54.51500 | -19.10966 | 37470 ft | 476 kts | 272° |
| 2026-05-08 23:51 | 54.51343 | -19.22463 | 37470 ft | 476 kts | 272° |
| 2026-05-08 23:51 | 54.51174 | -19.33961 | 37468 ft | 476 kts | 272° |
| 2026-05-08 23:52 | 54.50995 | -19.45425 | 37471 ft | 476 kts | 272° |
| 2026-05-08 23:52 | 54.50808 | -19.56797 | 37469 ft | 476 kts | 272° |
| 2026-05-08 23:53 | 54.50604 | -19.68472 | 37476 ft | 476 kts | 272° |
| 2026-05-08 23:53 | 54.50392 | -19.79948 | 37475 ft | 476 kts | 272° |
| 2026-05-08 23:54 | 54.50169 | -19.91410 | 37482 ft | 475 kts | 272° |
| 2026-05-08 23:55 | 54.49518 | -20.08637 | 37485 ft | 478 kts | 269° |
| 2026-05-08 23:55 | 54.48848 | -20.20069 | 37483 ft | 477 kts | 269° |
| 2026-05-08 23:56 | 54.48165 | -20.31534 | 37486 ft | 477 kts | 269° |
| 2026-05-08 23:56 | 54.47476 | -20.42985 | 37486 ft | 477 kts | 269° |
| 2026-05-08 23:57 | 54.46781 | -20.54395 | 37495 ft | 477 kts | 269° |
| 2026-05-08 23:57 | 54.46082 | -20.65698 | 37489 ft | 477 kts | 269° |
| 2026-05-08 23:58 | 54.45365 | -20.77122 | 37490 ft | 477 kts | 269° |
| 2026-05-08 23:58 | 54.44637 | -20.88532 | 37501 ft | 478 kts | 269° |
| 2026-05-08 23:59 | 54.43897 | -20.99968 | 37496 ft | 478 kts | 269° |
| 2026-05-08 23:59 | 54.43146 | -21.11407 | 37495 ft | 478 kts | 269° |
| 2026-05-09 00:00 | 54.42379 | -21.22910 | 37500 ft | 478 kts | 269° |
| 2026-05-09 00:00 | 54.41736 | -21.32424 | 37503 ft | 479 kts | 269° |
| 2026-05-09 00:01 | 54.40952 | -21.43893 | 37501 ft | 479 kts | 269° |
| 2026-05-09 00:01 | 54.40161 | -21.55291 | 37506 ft | 479 kts | 269° |
| 2026-05-09 00:02 | 54.39357 | -21.66714 | 37506 ft | 479 kts | 269° |
| 2026-05-09 00:02 | 54.38538 | -21.78189 | 37505 ft | 480 kts | 269° |
| 2026-05-09 00:03 | 54.37709 | -21.89664 | 37509 ft | 480 kts | 269° |
| 2026-05-09 00:03 | 54.36866 | -22.01166 | 37514 ft | 480 kts | 269° |
| 2026-05-09 00:04 | 54.36014 | -22.12639 | 37512 ft | 481 kts | 269° |
| 2026-05-09 00:04 | 54.35155 | -22.24059 | 37512 ft | 481 kts | 269° |
| 2026-05-09 00:05 | 54.34279 | -22.35547 | 37516 ft | 482 kts | 269° |
| 2026-05-09 00:05 | 54.33386 | -22.47117 | 37524 ft | 482 kts | 269° |
| 2026-05-09 00:06 | 54.32485 | -22.58646 | 37518 ft | 482 kts | 269° |
| 2026-05-09 00:06 | 54.31568 | -22.70225 | 37520 ft | 482 kts | 268° |
| 2026-05-09 00:07 | 54.30641 | -22.81782 | 37522 ft | 483 kts | 268° |
| 2026-05-09 00:07 | 54.29705 | -22.93311 | 37525 ft | 483 kts | 268° |
| 2026-05-09 00:08 | 49.50404 | -49.98704 | 37274 ft | 434 kts | 246° |
| 2026-05-09 00:08 | 49.49477 | -50.03135 | 36953 ft | 426 kts | 242° |
| 2026-05-09 00:08 | 49.48394 | -50.07451 | 36873 ft | 425 kts | 242° |
| 2026-05-09 00:09 | 49.46211 | -50.16072 | 36818 ft | 426 kts | 242° |
| 2026-05-09 00:09 | 49.44091 | -50.24666 | 36808 ft | 427 kts | 242° |
| 2026-05-09 00:10 | 49.41961 | -50.33398 | 36798 ft | 427 kts | 242° |
| 2026-05-09 00:10 | 49.39868 | -50.41993 | 36800 ft | 427 kts | 242° |
| 2026-05-09 00:11 | 49.34278 | -50.64832 | 36784 ft | 426 kts | 242° |
| 2026-05-09 00:11 | 49.24616 | -51.03763 | 36770 ft | 425 kts | 242° |
| 2026-05-09 00:12 | 49.18378 | -51.28543 | 36746 ft | 425 kts | 241° |
| 2026-05-09 00:12 | 49.12737 | -51.50719 | 36737 ft | 425 kts | 241° |
| 2026-05-09 00:13 | 49.06869 | -51.73556 | 36726 ft | 425 kts | 240° |
| 2026-05-09 00:13 | 49.04056 | -51.84420 | 36718 ft | 425 kts | 240° |
| 2026-05-09 00:14 | 49.01862 | -51.92851 | 36768 ft | 429 kts | 240° |
| 2026-05-09 00:14 | 49.00757 | -51.97087 | 37153 ft | 427 kts | 240° |
| 2026-05-09 00:14 | 48.99651 | -52.01329 | 37606 ft | 423 kts | 240° |
| 2026-05-09 00:15 | 48.97430 | -52.09676 | 37699 ft | 421 kts | 239° |
| 2026-05-09 00:15 | 48.95199 | -52.17989 | 37694 ft | 420 kts | 239° |
| 2026-05-09 00:16 | 48.92978 | -52.26245 | 37694 ft | 420 kts | 239° |
| 2026-05-09 00:16 | 48.90750 | -52.34503 | 37694 ft | 419 kts | 239° |
| 2026-05-09 00:17 | 48.88526 | -52.42722 | 37678 ft | 419 kts | 239° |
| 2026-05-09 00:17 | 48.86297 | -52.50930 | 37677 ft | 419 kts | 238° |
| 2026-05-09 00:18 | 48.84058 | -52.59146 | 37676 ft | 418 kts | 238° |
| 2026-05-09 00:18 | 48.81788 | -52.67447 | 37670 ft | 418 kts | 238° |
| 2026-05-09 00:19 | 48.79535 | -52.75655 | 37664 ft | 418 kts | 238° |
| 2026-05-09 00:19 | 48.77286 | -52.83819 | 37657 ft | 418 kts | 238° |
| 2026-05-09 00:20 | 48.75016 | -52.92034 | 37658 ft | 417 kts | 237° |
| 2026-05-09 00:20 | 48.72745 | -53.00224 | 37649 ft | 417 kts | 237° |
| 2026-05-09 00:21 | 48.70469 | -53.08403 | 37641 ft | 417 kts | 237° |
| 2026-05-09 00:21 | 48.68190 | -53.16565 | 37637 ft | 416 kts | 237° |
| 2026-05-09 00:22 | 48.65910 | -53.24702 | 37628 ft | 416 kts | 237° |
| 2026-05-09 00:22 | 48.63621 | -53.32840 | 37612 ft | 415 kts | 237° |
| 2026-05-09 00:23 | 48.61332 | -53.40953 | 37614 ft | 415 kts | 237° |
| 2026-05-09 00:23 | 48.59051 | -53.49010 | 37617 ft | 415 kts | 237° |
| 2026-05-09 00:24 | 48.56742 | -53.57141 | 37607 ft | 414 kts | 237° |
| 2026-05-09 00:24 | 48.54460 | -53.65147 | 37613 ft | 414 kts | 237° |
| 2026-05-09 00:25 | 48.52149 | -53.73230 | 37606 ft | 414 kts | 237° |
| 2026-05-09 00:25 | 48.49834 | -53.81298 | 37600 ft | 414 kts | 237° |
| 2026-05-09 00:26 | 48.47530 | -53.89301 | 37600 ft | 414 kts | 236° |
| 2026-05-09 00:26 | 48.45215 | -53.97318 | 37596 ft | 415 kts | 236° |
| 2026-05-09 00:27 | 48.42890 | -54.05342 | 37601 ft | 415 kts | 236° |
| 2026-05-09 00:27 | 48.40550 | -54.13389 | 37597 ft | 415 kts | 236° |
| 2026-05-09 00:28 | 48.38202 | -54.21437 | 37602 ft | 416 kts | 236° |
| 2026-05-09 00:28 | 48.35855 | -54.29455 | 37604 ft | 416 kts | 236° |
| 2026-05-09 00:29 | 48.33514 | -54.37428 | 37601 ft | 416 kts | 236° |
| 2026-05-09 00:29 | 48.31146 | -54.45464 | 37608 ft | 416 kts | 236° |
| 2026-05-09 00:30 | 48.28769 | -54.53508 | 37602 ft | 417 kts | 236° |
| 2026-05-09 00:30 | 48.26397 | -54.61506 | 37606 ft | 417 kts | 236° |
| 2026-05-09 00:31 | 48.24009 | -54.69534 | 37603 ft | 417 kts | 237° |
| 2026-05-09 00:31 | 48.21614 | -54.77557 | 37601 ft | 417 kts | 237° |
| 2026-05-09 00:32 | 48.19222 | -54.85549 | 37587 ft | 416 kts | 237° |
| 2026-05-09 00:32 | 48.16843 | -54.93465 | 37585 ft | 416 kts | 237° |
| 2026-05-09 00:33 | 48.14434 | -55.01460 | 37569 ft | 416 kts | 237° |
| 2026-05-09 00:33 | 48.12038 | -55.09389 | 37547 ft | 416 kts | 237° |
| 2026-05-09 00:34 | 48.09620 | -55.17361 | 37551 ft | 416 kts | 236° |
| 2026-05-09 00:34 | 48.07239 | -55.25184 | 37538 ft | 416 kts | 236° |
| 2026-05-09 00:35 | 48.04799 | -55.33176 | 37536 ft | 416 kts | 236° |
| 2026-05-09 00:35 | 48.02384 | -55.41064 | 37531 ft | 416 kts | 236° |
| 2026-05-09 00:36 | 47.99956 | -55.48962 | 37531 ft | 417 kts | 236° |
| 2026-05-09 00:36 | 47.97516 | -55.56878 | 37529 ft | 417 kts | 236° |
| 2026-05-09 00:37 | 47.95061 | -55.64817 | 37521 ft | 417 kts | 236° |
| 2026-05-09 00:37 | 47.92607 | -55.72729 | 37526 ft | 418 kts | 236° |
| 2026-05-09 00:38 | 47.90149 | -55.80631 | 37523 ft | 418 kts | 237° |
| 2026-05-09 00:38 | 47.87698 | -55.88481 | 37519 ft | 418 kts | 237° |
| 2026-05-09 00:39 | 47.85217 | -55.96406 | 37513 ft | 419 kts | 236° |
| 2026-05-09 00:39 | 47.82734 | -56.04314 | 37519 ft | 419 kts | 237° |
| 2026-05-09 00:40 | 47.80239 | -56.12232 | 37516 ft | 419 kts | 237° |
| 2026-05-09 00:40 | 47.77716 | -56.20215 | 37529 ft | 420 kts | 236° |
| 2026-05-09 00:41 | 47.73936 | -56.32124 | 37545 ft | 421 kts | 237° |
| 2026-05-09 00:41 | 47.71405 | -56.40068 | 37548 ft | 421 kts | 237° |
| 2026-05-09 00:42 | 47.68884 | -56.47957 | 37560 ft | 422 kts | 237° |
| 2026-05-09 00:42 | 47.66321 | -56.55949 | 37574 ft | 423 kts | 237° |
| 2026-05-09 00:43 | 47.63761 | -56.63911 | 37587 ft | 423 kts | 237° |
| 2026-05-09 00:43 | 47.61198 | -56.71857 | 37600 ft | 424 kts | 237° |
| 2026-05-09 00:44 | 47.58628 | -56.79798 | 37612 ft | 425 kts | 237° |
| 2026-05-09 00:44 | 47.56062 | -56.87705 | 37616 ft | 425 kts | 237° |
| 2026-05-09 00:45 | 47.53475 | -56.95651 | 37630 ft | 425 kts | 237° |
| 2026-05-09 00:45 | 47.50862 | -57.03649 | 37645 ft | 426 kts | 237° |
| 2026-05-09 00:46 | 47.48267 | -57.11569 | 37649 ft | 426 kts | 237° |
| 2026-05-09 00:46 | 47.45683 | -57.19431 | 37638 ft | 427 kts | 237° |
| 2026-05-09 00:47 | 47.43497 | -57.26066 | 37648 ft | 427 kts | 237° |
| 2026-05-09 00:47 | 47.40450 | -57.35283 | 37656 ft | 427 kts | 237° |
| 2026-05-09 00:48 | 47.38269 | -57.41858 | 37661 ft | 428 kts | 237° |
| 2026-05-09 00:48 | 47.35613 | -57.49847 | 37662 ft | 428 kts | 237° |
| 2026-05-09 00:49 | 47.32991 | -57.57706 | 37666 ft | 429 kts | 237° |
| 2026-05-09 00:49 | 47.30338 | -57.65634 | 37664 ft | 429 kts | 237° |
| 2026-05-09 00:50 | 47.27676 | -57.73566 | 37664 ft | 429 kts | 237° |
| 2026-05-09 00:50 | 47.24999 | -57.81519 | 37668 ft | 430 kts | 237° |
| 2026-05-09 00:51 | 47.22320 | -57.89451 | 37673 ft | 430 kts | 237° |
| 2026-05-09 00:51 | 47.19636 | -57.97377 | 37681 ft | 431 kts | 237° |
| 2026-05-09 00:52 | 47.16936 | -58.05324 | 37680 ft | 431 kts | 237° |
| 2026-05-09 00:52 | 47.14233 | -58.13254 | 37683 ft | 431 kts | 237° |
| 2026-05-09 00:53 | 47.11545 | -58.21120 | 37687 ft | 432 kts | 237° |
| 2026-05-09 00:53 | 47.08831 | -58.29036 | 37686 ft | 432 kts | 237° |
| 2026-05-09 00:54 | 47.06108 | -58.36954 | 37696 ft | 432 kts | 237° |
| 2026-05-09 00:54 | 47.03378 | -58.44869 | 37701 ft | 433 kts | 237° |
| 2026-05-09 00:55 | 47.00636 | -58.52792 | 37705 ft | 433 kts | 237° |
| 2026-05-09 00:55 | 46.97889 | -58.60711 | 37707 ft | 433 kts | 237° |
| 2026-05-09 00:56 | 46.95151 | -58.68577 | 37718 ft | 434 kts | 237° |
| 2026-05-09 00:56 | 46.92393 | -58.76477 | 37721 ft | 434 kts | 237° |
| 2026-05-09 00:57 | 46.89626 | -58.84378 | 37726 ft | 434 kts | 237° |
| 2026-05-09 00:57 | 46.86847 | -58.92292 | 37742 ft | 434 kts | 237° |
| 2026-05-09 00:58 | 46.84063 | -59.00196 | 37732 ft | 435 kts | 237° |
| 2026-05-09 00:58 | 46.81289 | -59.08048 | 37741 ft | 435 kts | 237° |
| 2026-05-09 00:59 | 46.78497 | -59.15926 | 37739 ft | 435 kts | 237° |
| 2026-05-09 00:59 | 46.75697 | -59.23806 | 37745 ft | 435 kts | 237° |
| 2026-05-09 01:00 | 46.72887 | -59.31686 | 37749 ft | 435 kts | 237° |
| 2026-05-09 01:00 | 46.70072 | -59.39559 | 37755 ft | 435 kts | 237° |
| 2026-05-09 01:01 | 46.67252 | -59.47423 | 37751 ft | 436 kts | 238° |
| 2026-05-09 01:01 | 46.64425 | -59.55284 | 37756 ft | 436 kts | 238° |
| 2026-05-09 01:02 | 46.61603 | -59.63108 | 37756 ft | 436 kts | 238° |
| 2026-05-09 01:02 | 46.58753 | -59.70986 | 37756 ft | 436 kts | 238° |
| 2026-05-09 01:03 | 46.55899 | -59.78851 | 37759 ft | 437 kts | 238° |
| 2026-05-09 01:03 | 46.53039 | -59.86708 | 37765 ft | 437 kts | 238° |
| 2026-05-09 01:04 | 46.50178 | -59.94549 | 37764 ft | 437 kts | 238° |
| 2026-05-09 01:04 | 46.47300 | -60.02415 | 37761 ft | 437 kts | 238° |
| 2026-05-09 01:05 | 46.44425 | -60.10250 | 37762 ft | 437 kts | 238° |
| 2026-05-09 01:06 | 46.40100 | -60.21988 | 37749 ft | 438 kts | 238° |
| 2026-05-09 01:06 | 46.37200 | -60.29833 | 37753 ft | 439 kts | 238° |
| 2026-05-09 01:07 | 46.34320 | -60.37597 | 37761 ft | 439 kts | 238° |
| 2026-05-09 01:07 | 46.31408 | -60.45429 | 37757 ft | 439 kts | 238° |
| 2026-05-09 01:08 | 46.28500 | -60.53226 | 37763 ft | 439 kts | 238° |
| 2026-05-09 01:08 | 46.25577 | -60.61039 | 37767 ft | 439 kts | 238° |
| 2026-05-09 01:09 | 46.22648 | -60.68848 | 37767 ft | 439 kts | 238° |
| 2026-05-09 01:09 | 46.19705 | -60.76668 | 37771 ft | 439 kts | 238° |
| 2026-05-09 01:10 | 46.15992 | -60.86504 | 37774 ft | 439 kts | 238° |
| 2026-05-09 01:10 | 46.07917 | -61.07775 | 37780 ft | 439 kts | 238° |
| 2026-05-09 01:11 | 45.99793 | -61.29007 | 37800 ft | 440 kts | 238° |
| 2026-05-09 01:11 | 45.90204 | -61.53857 | 37798 ft | 439 kts | 238° |
| 2026-05-09 01:12 | 45.77472 | -61.86506 | 37819 ft | 441 kts | 238° |
| 2026-05-09 01:12 | 45.73096 | -61.97641 | 37812 ft | 441 kts | 238° |
| 2026-05-09 01:13 | 43.98867 | -66.09008 | 37916 ft | 440 kts | 243° |
| 2026-05-09 01:13 | 43.95542 | -66.16206 | 37917 ft | 439 kts | 239° |
| 2026-05-09 01:14 | 43.92121 | -66.23371 | 37915 ft | 438 kts | 239° |
| 2026-05-09 01:14 | 43.88817 | -66.30456 | 37914 ft | 438 kts | 240° |
| 2026-05-09 01:15 | 43.85519 | -66.37595 | 37916 ft | 437 kts | 240° |
| 2026-05-09 01:15 | 43.82241 | -66.44701 | 37921 ft | 437 kts | 240° |
| 2026-05-09 01:16 | 43.78942 | -66.51845 | 37925 ft | 436 kts | 240° |
| 2026-05-09 01:16 | 43.75657 | -66.58944 | 37929 ft | 436 kts | 240° |
| 2026-05-09 01:17 | 43.70735 | -66.69546 | 37935 ft | 435 kts | 240° |
| 2026-05-09 01:17 | 43.67443 | -66.76617 | 37939 ft | 435 kts | 240° |
| 2026-05-09 01:18 | 43.64149 | -66.83674 | 37943 ft | 434 kts | 240° |
| 2026-05-09 01:18 | 43.60859 | -66.90706 | 37945 ft | 434 kts | 240° |
| 2026-05-09 01:19 | 43.57550 | -66.97758 | 37947 ft | 434 kts | 240° |
| 2026-05-09 01:19 | 43.54441 | -67.04922 | 37949 ft | 432 kts | 243° |
| 2026-05-09 01:20 | 43.51399 | -67.12168 | 37950 ft | 432 kts | 243° |
| 2026-05-09 01:20 | 43.48384 | -67.19332 | 37951 ft | 432 kts | 243° |
| 2026-05-09 01:21 | 43.45344 | -67.26537 | 37956 ft | 432 kts | 243° |
| 2026-05-09 01:21 | 43.42327 | -67.33675 | 37953 ft | 431 kts | 243° |
| 2026-05-09 01:22 | 43.39292 | -67.40835 | 37955 ft | 432 kts | 243° |
| 2026-05-09 01:22 | 43.36248 | -67.47999 | 37953 ft | 431 kts | 243° |
| 2026-05-09 01:23 | 43.33223 | -67.55099 | 37956 ft | 431 kts | 243° |
| 2026-05-09 01:23 | 43.30153 | -67.62290 | 37959 ft | 431 kts | 243° |
| 2026-05-09 01:24 | 43.27120 | -67.69375 | 37957 ft | 431 kts | 243° |
| 2026-05-09 01:24 | 43.24065 | -67.76496 | 37960 ft | 431 kts | 243° |
| 2026-05-09 01:25 | 43.21014 | -67.83590 | 37957 ft | 430 kts | 243° |
| 2026-05-09 01:25 | 43.17946 | -67.90705 | 37971 ft | 430 kts | 243° |
| 2026-05-09 01:26 | 43.14886 | -67.97783 | 37962 ft | 430 kts | 243° |
| 2026-05-09 01:26 | 43.11827 | -68.04844 | 37965 ft | 429 kts | 243° |
| 2026-05-09 01:27 | 43.08763 | -68.11898 | 37968 ft | 428 kts | 243° |
| 2026-05-09 01:27 | 43.05707 | -68.18918 | 37962 ft | 428 kts | 243° |
| 2026-05-09 01:28 | 43.02657 | -68.25907 | 37965 ft | 427 kts | 243° |
| 2026-05-09 01:28 | 42.99569 | -68.32964 | 37965 ft | 426 kts | 243° |
| 2026-05-09 01:29 | 42.96507 | -68.39947 | 37970 ft | 426 kts | 243° |
| 2026-05-09 01:29 | 42.93424 | -68.46961 | 37966 ft | 425 kts | 243° |
| 2026-05-09 01:30 | 42.90352 | -68.53934 | 37966 ft | 424 kts | 243° |
| 2026-05-09 01:30 | 42.87315 | -68.60809 | 37964 ft | 424 kts | 243° |
| 2026-05-09 01:31 | 42.84254 | -68.67724 | 37965 ft | 423 kts | 243° |
| 2026-05-09 01:31 | 42.81196 | -68.74617 | 37969 ft | 423 kts | 243° |
| 2026-05-09 01:32 | 42.78128 | -68.81515 | 37967 ft | 423 kts | 243° |
| 2026-05-09 01:32 | 42.75068 | -68.88380 | 37972 ft | 422 kts | 243° |
| 2026-05-09 01:33 | 42.72522 | -68.94079 | 37973 ft | 422 kts | 243° |
| 2026-05-09 01:33 | 42.68959 | -69.02035 | 37974 ft | 422 kts | 243° |
| 2026-05-09 01:34 | 42.65889 | -69.08874 | 37973 ft | 421 kts | 243° |
| 2026-05-09 01:34 | 42.63323 | -69.14578 | 37981 ft | 421 kts | 243° |
| 2026-05-09 01:35 | 42.60270 | -69.21350 | 37981 ft | 421 kts | 243° |
| 2026-05-09 01:35 | 42.57202 | -69.28141 | 37976 ft | 420 kts | 243° |
| 2026-05-09 01:36 | 42.54118 | -69.34951 | 37975 ft | 420 kts | 243° |
| 2026-05-09 01:36 | 42.51045 | -69.41721 | 37978 ft | 420 kts | 243° |
| 2026-05-09 01:37 | 42.47988 | -69.48439 | 37984 ft | 420 kts | 243° |
| 2026-05-09 01:37 | 42.44943 | -69.55235 | 37980 ft | 419 kts | 244° |
| 2026-05-09 01:38 | 42.41937 | -69.62068 | 37982 ft | 419 kts | 244° |
| 2026-05-09 01:38 | 42.38897 | -69.68886 | 37975 ft | 419 kts | 244° |
| 2026-05-09 01:39 | 42.35862 | -69.75672 | 37990 ft | 418 kts | 244° |
| 2026-05-09 01:39 | 42.32808 | -69.82496 | 37989 ft | 418 kts | 244° |
| 2026-05-09 01:40 | 42.29742 | -69.89337 | 37987 ft | 418 kts | 244° |
| 2026-05-09 01:40 | 42.26687 | -69.96140 | 37981 ft | 418 kts | 244° |
| 2026-05-09 01:41 | 42.23659 | -70.02870 | 37978 ft | 417 kts | 244° |
| 2026-05-09 01:41 | 42.20579 | -70.09700 | 37956 ft | 415 kts | 244° |
| 2026-05-09 01:42 | 42.19074 | -70.13027 | 37648 ft | 410 kts | 244° |
| 2026-05-09 01:42 | 42.17580 | -70.16329 | 36912 ft | 412 kts | 244° |
| 2026-05-09 01:42 | 42.16044 | -70.19726 | 36172 ft | 414 kts | 244° |
| 2026-05-09 01:42 | 42.14526 | -70.23075 | 35613 ft | 413 kts | 244° |
| 2026-05-09 01:43 | 42.13049 | -70.26328 | 35113 ft | 410 kts | 244° |
| 2026-05-09 01:43 | 42.11540 | -70.29648 | 34567 ft | 409 kts | 244° |
| 2026-05-09 01:43 | 42.10074 | -70.32871 | 34121 ft | 405 kts | 244° |
| 2026-05-09 01:43 | 42.08591 | -70.36127 | 33977 ft | 405 kts | 244° |
| 2026-05-09 01:44 | 42.05629 | -70.42626 | 33961 ft | 405 kts | 244° |
| 2026-05-09 01:44 | 42.02671 | -70.49100 | 33592 ft | 405 kts | 244° |
| 2026-05-09 01:45 | 42.01183 | -70.52351 | 33320 ft | 406 kts | 244° |
| 2026-05-09 01:45 | 41.99668 | -70.55658 | 33039 ft | 406 kts | 244° |
| 2026-05-09 01:45 | 41.98199 | -70.58860 | 32762 ft | 407 kts | 244° |
| 2026-05-09 01:45 | 41.96705 | -70.62114 | 32486 ft | 407 kts | 244° |
| 2026-05-09 01:46 | 41.95199 | -70.65390 | 32219 ft | 408 kts | 244° |
| 2026-05-09 01:46 | 41.93718 | -70.68610 | 31978 ft | 409 kts | 244° |
| 2026-05-09 01:46 | 41.92186 | -70.71934 | 31707 ft | 410 kts | 244° |
| 2026-05-09 01:46 | 41.90677 | -70.75207 | 31441 ft | 410 kts | 244° |
| 2026-05-09 01:47 | 41.89172 | -70.78476 | 31182 ft | 410 kts | 245° |
| 2026-05-09 01:47 | 41.87685 | -70.81730 | 30927 ft | 402 kts | 244° |
| 2026-05-09 01:47 | 41.86186 | -70.84961 | 30674 ft | 402 kts | 244° |
| 2026-05-09 01:47 | 41.84704 | -70.88151 | 30425 ft | 403 kts | 244° |
| 2026-05-09 01:48 | 41.83217 | -70.91351 | 30186 ft | 404 kts | 244° |
| 2026-05-09 01:48 | 41.81715 | -70.94583 | 29908 ft | 405 kts | 244° |
| 2026-05-09 01:48 | 41.80205 | -70.97829 | 29608 ft | 406 kts | 244° |
| 2026-05-09 01:48 | 41.78708 | -71.01047 | 29333 ft | 407 kts | 244° |
| 2026-05-09 01:49 | 41.75686 | -71.07533 | 29079 ft | 409 kts | 244° |
| 2026-05-09 01:49 | 41.74151 | -71.10820 | 28784 ft | 410 kts | 244° |
| 2026-05-09 01:49 | 41.72618 | -71.14101 | 28498 ft | 411 kts | 244° |
| 2026-05-09 01:50 | 41.71075 | -71.17401 | 28219 ft | 413 kts | 244° |
| 2026-05-09 01:50 | 41.69543 | -71.20673 | 27951 ft | 414 kts | 244° |
| 2026-05-09 01:50 | 41.67989 | -71.23988 | 27680 ft | 415 kts | 244° |
| 2026-05-09 01:50 | 41.66464 | -71.27238 | 27397 ft | 416 kts | 244° |
| 2026-05-09 01:51 | 41.64884 | -71.30599 | 27129 ft | 415 kts | 244° |
| 2026-05-09 01:51 | 41.63368 | -71.33821 | 26863 ft | 414 kts | 244° |
| 2026-05-09 01:51 | 41.61825 | -71.37096 | 26593 ft | 412 kts | 244° |
| 2026-05-09 01:51 | 41.60296 | -71.40338 | 26344 ft | 411 kts | 244° |
| 2026-05-09 01:52 | 41.58767 | -71.43578 | 26082 ft | 410 kts | 244° |
| 2026-05-09 01:52 | 41.57241 | -71.46808 | 25837 ft | 409 kts | 244° |
| 2026-05-09 01:52 | 41.55694 | -71.50080 | 25574 ft | 408 kts | 244° |
| 2026-05-09 01:52 | 41.54175 | -71.53290 | 25333 ft | 407 kts | 244° |
| 2026-05-09 01:53 | 41.52655 | -71.56497 | 25072 ft | 406 kts | 244° |
| 2026-05-09 01:53 | 41.51138 | -71.59696 | 24822 ft | 405 kts | 244° |
| 2026-05-09 01:53 | 41.49625 | -71.62882 | 24570 ft | 405 kts | 244° |
| 2026-05-09 01:53 | 41.48109 | -71.66071 | 24350 ft | 404 kts | 244° |
| 2026-05-09 01:54 | 41.46605 | -71.69231 | 24103 ft | 403 kts | 244° |
| 2026-05-09 01:54 | 41.45094 | -71.72404 | 23865 ft | 402 kts | 244° |
| 2026-05-09 01:54 | 41.43595 | -71.75548 | 23638 ft | 401 kts | 244° |
| 2026-05-09 01:54 | 41.42110 | -71.78659 | 23385 ft | 400 kts | 244° |
| 2026-05-09 01:55 | 41.40616 | -71.81786 | 23095 ft | 399 kts | 243° |
| 2026-05-09 01:55 | 41.39119 | -71.84917 | 22815 ft | 397 kts | 243° |
| 2026-05-09 01:55 | 41.37623 | -71.88042 | 22543 ft | 396 kts | 243° |
| 2026-05-09 01:55 | 41.36141 | -71.91134 | 22263 ft | 394 kts | 243° |
| 2026-05-09 01:56 | 41.34660 | -71.94221 | 21984 ft | 393 kts | 243° |
| 2026-05-09 01:56 | 41.33190 | -71.97283 | 21722 ft | 391 kts | 243° |
| 2026-05-09 01:56 | 41.31705 | -72.00374 | 21452 ft | 390 kts | 243° |
| 2026-05-09 01:56 | 41.30243 | -72.03411 | 21190 ft | 389 kts | 243° |
| 2026-05-09 01:57 | 41.28776 | -72.06458 | 20927 ft | 388 kts | 243° |
| 2026-05-09 01:57 | 41.27318 | -72.09483 | 20664 ft | 387 kts | 243° |
| 2026-05-09 01:57 | 41.25860 | -72.12504 | 20403 ft | 386 kts | 243° |
| 2026-05-09 01:57 | 41.24400 | -72.15525 | 20120 ft | 385 kts | 243° |
| 2026-05-09 01:58 | 41.22952 | -72.18520 | 19736 ft | 383 kts | 243° |
| 2026-05-09 01:58 | 41.21523 | -72.21472 | 19317 ft | 380 kts | 243° |
| 2026-05-09 01:58 | 41.20076 | -72.24459 | 18859 ft | 377 kts | 243° |
| 2026-05-09 01:58 | 41.18668 | -72.27361 | 18408 ft | 374 kts | 243° |
| 2026-05-09 01:59 | 41.17258 | -72.30265 | 17913 ft | 371 kts | 243° |
| 2026-05-09 01:59 | 41.15858 | -72.33143 | 17437 ft | 366 kts | 243° |
| 2026-05-09 01:59 | 41.14473 | -72.35986 | 16989 ft | 362 kts | 243° |
| 2026-05-09 01:59 | 41.13139 | -72.38725 | 16586 ft | 357 kts | 243° |
| 2026-05-09 02:00 | 41.11750 | -72.41574 | 16143 ft | 353 kts | 243° |
| 2026-05-09 02:00 | 41.10420 | -72.44300 | 15730 ft | 349 kts | 243° |
| 2026-05-09 02:00 | 41.09105 | -72.46994 | 15312 ft | 345 kts | 243° |
| 2026-05-09 02:00 | 41.07801 | -72.49663 | 14908 ft | 342 kts | 243° |
| 2026-05-09 02:01 | 41.06512 | -72.52300 | 14483 ft | 339 kts | 243° |
| 2026-05-09 02:01 | 41.05228 | -72.54924 | 14085 ft | 336 kts | 243° |
| 2026-05-09 02:01 | 41.03960 | -72.57514 | 13664 ft | 333 kts | 243° |
| 2026-05-09 02:01 | 41.02718 | -72.60052 | 13227 ft | 330 kts | 243° |
| 2026-05-09 02:02 | 41.01468 | -72.62605 | 12822 ft | 326 kts | 243° |
| 2026-05-09 02:02 | 41.00256 | -72.65065 | 12742 ft | 311 kts | 243° |
| 2026-05-09 02:02 | 40.99090 | -72.67428 | 12642 ft | 298 kts | 243° |
| 2026-05-09 02:02 | 40.97980 | -72.69679 | 12529 ft | 285 kts | 243° |
| 2026-05-09 02:03 | 40.96918 | -72.71835 | 12410 ft | 273 kts | 244° |
| 2026-05-09 02:03 | 40.95900 | -72.73900 | 12310 ft | 261 kts | 244° |
| 2026-05-09 02:03 | 40.94929 | -72.75870 | 12221 ft | 249 kts | 244° |
| 2026-05-09 02:03 | 40.93989 | -72.77774 | 12113 ft | 243 kts | 242° |
| 2026-05-09 02:04 | 40.92930 | -72.79534 | 12026 ft | 244 kts | 235° |
| 2026-05-09 02:04 | 40.91626 | -72.81149 | 12028 ft | 265 kts | 227° |
| 2026-05-09 02:04 | 40.90133 | -72.82640 | 12039 ft | 270 kts | 225° |
| 2026-05-09 02:04 | 40.88589 | -72.84119 | 12032 ft | 269 kts | 224° |
| 2026-05-09 02:05 | 40.87076 | -72.85558 | 11711 ft | 266 kts | 224° |
| 2026-05-09 02:05 | 40.85557 | -72.87012 | 11284 ft | 267 kts | 224° |
| 2026-05-09 02:05 | 40.84060 | -72.88445 | 10944 ft | 265 kts | 224° |
| 2026-05-09 02:05 | 40.82562 | -72.89876 | 10595 ft | 263 kts | 223° |
| 2026-05-09 02:06 | 40.81087 | -72.91287 | 10268 ft | 261 kts | 223° |
| 2026-05-09 02:06 | 40.79615 | -72.92694 | 9937 ft | 258 kts | 223° |
| 2026-05-09 02:06 | 40.78153 | -72.94089 | 9586 ft | 256 kts | 223° |
| 2026-05-09 02:07 | 40.75289 | -72.96820 | 8960 ft | 251 kts | 223° |
| 2026-05-09 02:07 | 40.73868 | -72.98179 | 8522 ft | 252 kts | 223° |
| 2026-05-09 02:07 | 40.72452 | -72.99547 | 8265 ft | 246 kts | 223° |
| 2026-05-09 02:07 | 40.71066 | -73.00883 | 8078 ft | 237 kts | 223° |
| 2026-05-09 02:08 | 40.69746 | -73.02144 | 7897 ft | 229 kts | 223° |
| 2026-05-09 02:08 | 40.68483 | -73.03346 | 7678 ft | 223 kts | 223° |
| 2026-05-09 02:08 | 40.67339 | -73.04740 | 7241 ft | 220 kts | 239° |
| 2026-05-09 02:08 | 40.66550 | -73.06460 | 6903 ft | 217 kts | 245° |
| 2026-05-09 02:09 | 40.65862 | -73.08212 | 6600 ft | 216 kts | 246° |
| 2026-05-09 02:09 | 40.65188 | -73.09986 | 6295 ft | 216 kts | 247° |
| 2026-05-09 02:09 | 40.64531 | -73.11732 | 6136 ft | 207 kts | 247° |
| 2026-05-09 02:09 | 40.63906 | -73.13397 | 6000 ft | 196 kts | 247° |
| 2026-05-09 02:10 | 40.63294 | -73.15028 | 5612 ft | 196 kts | 247° |
| 2026-05-09 02:10 | 40.62691 | -73.16652 | 5196 ft | 198 kts | 247° |
| 2026-05-09 02:10 | 40.62083 | -73.18311 | 4718 ft | 202 kts | 247° |
| 2026-05-09 02:10 | 40.61472 | -73.20013 | 4263 ft | 206 kts | 247° |
| 2026-05-09 02:11 | 40.60864 | -73.21735 | 4019 ft | 207 kts | 247° |
| 2026-05-09 02:11 | 40.60256 | -73.23478 | 4040 ft | 210 kts | 247° |
| 2026-05-09 02:11 | 40.59648 | -73.25230 | 4028 ft | 210 kts | 247° |
| 2026-05-09 02:11 | 40.59051 | -73.26944 | 4009 ft | 200 kts | 247° |
| 2026-05-09 02:12 | 40.58469 | -73.28603 | 4012 ft | 197 kts | 247° |
| 2026-05-09 02:12 | 40.57885 | -73.30263 | 4022 ft | 197 kts | 247° |
| 2026-05-09 02:12 | 40.57301 | -73.31933 | 4025 ft | 197 kts | 247° |
| 2026-05-09 02:12 | 40.56726 | -73.33575 | 4019 ft | 197 kts | 247° |
| 2026-05-09 02:13 | 40.56149 | -73.35226 | 4024 ft | 198 kts | 247° |
| 2026-05-09 02:13 | 40.55572 | -73.36871 | 4023 ft | 197 kts | 247° |
| 2026-05-09 02:13 | 40.54996 | -73.38511 | 4023 ft | 197 kts | 246° |
| 2026-05-09 02:13 | 40.54326 | -73.40094 | 4024 ft | 198 kts | 241° |
| 2026-05-09 02:14 | 40.53611 | -73.41641 | 4021 ft | 197 kts | 244° |
| 2026-05-09 02:14 | 40.53179 | -73.43355 | 4028 ft | 196 kts | 259° |
| 2026-05-09 02:14 | 40.52969 | -73.45104 | 3976 ft | 191 kts | 263° |
| 2026-05-09 02:14 | 40.52817 | -73.46880 | 3510 ft | 194 kts | 266° |
| 2026-05-09 02:15 | 40.52793 | -73.48676 | 3055 ft | 196 kts | 270° |
| 2026-05-09 02:15 | 40.52814 | -73.50493 | 2600 ft | 198 kts | 271° |
| 2026-05-09 02:15 | 40.52836 | -73.52328 | 2169 ft | 199 kts | 271° |
| 2026-05-09 02:15 | 40.52852 | -73.54160 | 2016 ft | 194 kts | 271° |
| 2026-05-09 02:16 | 40.53061 | -73.55835 | 1988 ft | 174 kts | 292° |
| 2026-05-09 02:16 | 40.53608 | -73.57164 | 1980 ft | 158 kts | 301° |
| 2026-05-09 02:16 | 40.54185 | -73.58377 | 2003 ft | 155 kts | 301° |
| 2026-05-09 02:16 | 40.54762 | -73.59584 | 2014 ft | 155 kts | 302° |
| 2026-05-09 02:17 | 40.55362 | -73.60789 | 2021 ft | 155 kts | 302° |
| 2026-05-09 02:17 | 40.55945 | -73.61987 | 2024 ft | 155 kts | 301° |
| 2026-05-09 02:17 | 40.56522 | -73.63219 | 2027 ft | 155 kts | 300° |
| 2026-05-09 02:17 | 40.57071 | -73.64421 | 2025 ft | 155 kts | 300° |
| 2026-05-09 02:18 | 40.57646 | -73.65700 | 2030 ft | 155 kts | 300° |
| 2026-05-09 02:18 | 40.58200 | -73.66938 | 2031 ft | 155 kts | 300° |
| 2026-05-09 02:18 | 40.58742 | -73.68150 | 1888 ft | 155 kts | 300° |
| 2026-05-09 02:18 | 40.59298 | -73.69388 | 1568 ft | 153 kts | 300° |
| 2026-05-09 02:19 | 40.59846 | -73.70609 | 1381 ft | 153 kts | 299° |
| 2026-05-09 02:19 | 40.60409 | -73.71854 | 1162 ft | 153 kts | 299° |
| 2026-05-09 02:19 | 40.60963 | -73.73073 | 915 ft | 153 kts | 299° |
| 2026-05-09 02:19 | 40.61507 | -73.74303 | 692 ft | 155 kts | 299° |
| 2026-05-09 02:20 | 40.62063 | -73.75565 | 519 ft | 156 kts | 300° |
| 2026-05-09 02:20 | 40.62640 | -73.76840 | 336 ft | 156 kts | 301° |
| 2026-05-09 02:20 | 40.63022 | -73.77663 | 220 ft | 156 kts | 300° |
| 2026-05-09 02:20 | 40.63761 | -73.79297 | 30 ft | 143 kts | 298° |
| 2026-05-09 02:21 | 40.64158 | -73.80175 | 31 ft | 76 kts | 301° |
| 2026-05-09 02:21 | 40.64351 | -73.80601 | 29 ft | 44 kts | 301° |
| 2026-05-09 02:21 | 40.64508 | -73.80949 | 31 ft | 45 kts | 301° |
| 2026-05-09 02:21 | 40.64621 | -73.81199 | 33 ft | 45 kts | 301° |
| 2026-05-09 02:22 | 40.64738 | -73.81423 | 32 ft | 17 kts | 335° |
| 2026-05-09 02:22 | 40.64880 | -73.81350 | 29 ft | 12 kts | 42° |